Time;durP1;ratioP1;P1;durP2;ratioP2;P2;SDS_P1;SDS_P2;PMS_P1;PMS_P2;Temp;Humidity;BMP_temperature;BMP_pressure;BME280_temperature;BME280_humidity;BME280_pressure;Samples;Min_cycle;Max_cycle;Signal;HPM_P1;HPM_P2
2022/04/24 00:00:41;;;;;;;2.33;2.22;;;;;;;6.48;100.00;94156.78;5093939;28;20427;-58
2022/04/24 00:03:07;;;;;;;3.65;2.75;;;;;;;6.49;100.00;94155.81;5094171;28;20113;-57
2022/04/24 00:05:32;;;;;;;2.08;1.98;;;;;;;6.49;100.00;94155.81;5093996;28;20020;-58
2022/04/24 00:07:58;;;;;;;2.00;1.90;;;;;;;6.51;100.00;94151.25;5094115;28;20479;-58
2022/04/24 00:10:23;;;;;;;1.92;1.83;;;;;;;6.51;100.00;94151.25;5093929;28;20552;-58
2022/04/24 00:12:48;;;;;;;2.30;2.20;;;;;;;6.48;100.00;94146.34;5093902;28;20028;-57
2022/04/24 00:15:14;;;;;;;2.53;2.42;;;;;;;6.51;100.00;94143.41;5093951;28;20024;-57
2022/04/24 00:17:40;;;;;;;2.60;2.40;;;;;;;6.50;100.00;94138.34;5093750;28;20046;-58
2022/04/24 00:20:06;;;;;;;2.70;2.50;;;;;;;6.42;100.00;94139.94;5094028;28;20051;-57
2022/04/24 00:22:31;;;;;;;2.70;2.50;;;;;;;6.27;100.00;94144.91;5093831;28;20035;-58
2022/04/24 00:24:57;;;;;;;5.10;2.50;;;;;;;6.23;100.00;94140.97;5093444;28;20024;-58
2022/04/24 00:27:22;;;;;;;2.90;2.70;;;;;;;6.39;100.00;94137.63;5093638;28;20024;-59
2022/04/24 00:29:47;;;;;;;2.35;2.25;;;;;;;6.24;100.00;94145.22;5093361;28;20031;-57
2022/04/24 00:32:13;;;;;;;2.10;2.00;;;;;;;6.10;100.00;94143.16;5093561;28;20024;-58
2022/04/24 00:34:38;;;;;;;2.25;2.13;;;;;;;6.12;100.00;94139.41;5093303;28;20032;-57
2022/04/24 00:37:04;;;;;;;2.22;2.13;;;;;;;6.24;100.00;94128.72;5093315;28;20376;-57
2022/04/24 00:39:30;;;;;;;1.63;1.63;;;;;;;6.33;100.00;94116.53;5093167;28;20024;-58
2022/04/24 00:41:55;;;;;;;2.08;1.98;;;;;;;6.22;100.00;94118.41;5092407;28;20073;-57
2022/04/24 00:44:21;;;;;;;1.83;1.80;;;;;;;6.23;100.00;94112.22;5093155;28;20122;-57
2022/04/24 00:46:56;;;;;;;1.65;1.60;;;;;;;6.21;100.00;94106.31;5093149;28;20078;-58
2022/04/24 00:49:22;;;;;;;1.80;1.70;;;;;;;6.13;100.00;94114.91;5093261;28;20024;-58
2022/04/24 00:51:48;;;;;;;1.92;1.83;;;;;;;6.13;100.00;94135.03;5092892;28;20750;-58
2022/04/24 00:54:13;;;;;;;2.63;2.47;;;;;;;6.08;100.00;94126.78;5093249;28;20279;-58
2022/04/24 00:56:40;;;;;;;2.25;2.15;;;;;;;6.07;100.00;94122.53;5093051;28;20107;-58
2022/04/24 00:59:08;;;;;;;3.50;1.73;;;;;;;6.00;100.00;94128.34;5092946;28;20056;-58
2022/04/24 01:01:34;;;;;;;2.00;1.90;;;;;;;6.00;100.00;94127.56;5092664;28;20035;-58
2022/04/24 01:04:01;;;;;;;2.28;1.70;;;;;;;6.05;100.00;94127.94;5092869;28;20052;-58
2022/04/24 01:06:39;;;;;;;2.10;2.00;;;;;;;5.99;100.00;94133.75;5092844;28;20350;-57
2022/04/24 01:09:23;;;;;;;2.22;2.13;;;;;;;5.94;100.00;94141.19;5092767;28;20075;-57
2022/04/24 01:11:53;;;;;;;2.03;1.92;;;;;;;5.92;100.00;94136.16;5092577;28;20081;-57
2022/04/24 01:14:20;;;;;;;2.05;1.95;;;;;;;5.91;100.00;94133.66;5092673;28;20502;-57
2022/04/24 01:16:47;;;;;;;1.55;1.55;;;;;;;6.04;100.00;94135.91;5092548;28;20526;-58
2022/04/24 01:19:13;;;;;;;1.50;1.50;;;;;;;6.04;100.00;94143.75;5092595;28;20031;-58
2022/04/24 01:21:42;;;;;;;2.05;1.90;;;;;;;6.06;100.00;94141.81;5092470;28;20036;-58
2022/04/24 01:24:08;;;;;;;2.25;2.15;;;;;;;6.19;100.00;94151.84;5092447;28;20024;-57
2022/04/24 01:26:34;;;;;;;2.20;2.10;;;;;;;6.16;100.00;94151.19;5092961;28;20024;-57
2022/04/24 01:29:00;;;;;;;1.92;1.80;;;;;;;6.13;100.00;94145.47;5092181;28;20028;-58
2022/04/24 01:31:25;;;;;;;1.83;1.73;;;;;;;6.05;100.00;94159.28;5092374;28;20487;-58
2022/04/24 01:33:51;;;;;;;5.07;2.10;;;;;;;6.04;100.00;94156.81;5092271;28;20028;-59
2022/04/24 01:36:16;;;;;;;2.63;2.10;;;;;;;6.11;100.00;94160.50;5092433;28;20023;-58
2022/04/24 01:38:42;;;;;;;2.15;1.73;;;;;;;6.08;100.00;94160.75;5092270;28;20073;-58
2022/04/24 01:41:08;;;;;;;2.03;1.92;;;;;;;6.08;100.00;94171.22;5091986;28;20024;-58
2022/04/24 01:43:36;;;;;;;2.17;2.08;;;;;;;6.08;100.00;94176.44;5092213;28;20097;-58
2022/04/24 01:46:02;;;;;;;1.88;1.77;;;;;;;5.99;100.00;94178.97;5092031;28;20107;-58
2022/04/24 01:48:28;;;;;;;2.55;2.45;;;;;;;5.98;100.00;94179.13;5091943;28;20115;-58
2022/04/24 01:50:56;;;;;;;2.00;1.90;;;;;;;5.99;100.00;94188.63;5091727;28;20063;-58
2022/04/24 01:53:21;;;;;;;2.47;2.38;;;;;;;5.95;100.00;94188.09;5090852;28;20424;-58
2022/04/24 01:55:47;;;;;;;2.35;2.25;;;;;;;5.95;100.00;94195.09;5091807;28;20050;-57
2022/04/24 01:58:12;;;;;;;2.63;2.42;;;;;;;5.98;100.00;94197.44;5092031;28;20024;-58
2022/04/24 02:00:38;;;;;;;8.75;2.78;;;;;;;6.02;100.00;94194.38;5091861;28;20028;-58
2022/04/24 02:03:03;;;;;;;2.30;2.20;;;;;;;6.00;100.00;94193.66;5091720;28;20128;-58
2022/04/24 02:05:28;;;;;;;5.90;5.50;;;;;;;6.05;100.00;94195.88;5091774;28;20032;-58
2022/04/24 02:07:54;;;;;;;2.75;2.58;;;;;;;6.01;100.00;94197.97;5091619;28;20032;-58
2022/04/24 02:10:19;;;;;;;2.10;2.00;;;;;;;6.06;100.00;94200.13;5091726;28;20024;-58
2022/04/24 02:12:46;;;;;;;2.25;2.15;;;;;;;6.15;100.00;94193.19;5091547;28;20028;-58
2022/04/24 02:15:11;;;;;;;2.50;2.40;;;;;;;6.06;100.00;94199.28;5090782;28;20019;-58
2022/04/24 02:17:37;;;;;;;3.70;2.63;;;;;;;6.05;100.00;94203.72;5091327;28;20537;-58
2022/04/24 02:20:03;;;;;;;4.70;2.50;;;;;;;6.10;100.00;94209.28;5091235;28;20035;-58
2022/04/24 02:22:33;;;;;;;2.33;2.22;;;;;;;6.15;100.00;94208.84;5091427;28;20530;-58
2022/04/24 02:24:59;;;;;;;3.83;2.45;;;;;;;6.15;100.00;94201.00;5091125;28;20016;-58
2022/04/24 02:27:25;;;;;;;2.35;2.25;;;;;;;6.19;100.00;94199.72;5091392;28;20030;-58
2022/04/24 02:29:50;;;;;;;2.47;2.28;;;;;;;6.19;100.00;94199.72;5091191;28;20393;-58
2022/04/24 02:32:15;;;;;;;2.20;2.10;;;;;;;6.19;100.00;94198.91;5091267;28;20050;-58
2022/04/24 02:34:41;;;;;;;2.08;1.98;;;;;;;6.18;100.00;94202.47;5091284;28;20027;-58
2022/04/24 02:37:06;;;;;;;2.30;2.20;;;;;;;6.16;100.00;94190.41;5091072;28;20028;-58
2022/04/24 02:39:31;;;;;;;2.38;2.28;;;;;;;6.11;100.00;94181.38;5091218;28;20020;-58
2022/04/24 02:41:57;;;;;;;2.47;2.35;;;;;;;6.13;100.00;94182.06;5091087;28;20016;-58
2022/04/24 02:44:22;;;;;;;2.10;2.00;;;;;;;6.08;100.00;94179.88;5091084;28;20055;-58
2022/04/24 02:46:47;;;;;;;3.55;2.42;;;;;;;6.06;100.00;94184.44;5090934;28;20036;-58
2022/04/24 02:49:13;;;;;;;2.25;2.10;;;;;;;6.00;100.00;94180.59;5090915;28;20062;-58
2022/04/24 02:51:38;;;;;;;2.80;2.60;;;;;;;6.01;100.00;94178.88;5091117;28;20036;-58
2022/04/24 02:54:04;;;;;;;2.53;2.33;;;;;;;6.00;100.00;94175.38;5090960;28;20028;-59
2022/04/24 02:56:29;;;;;;;2.33;2.22;;;;;;;6.08;100.00;94179.06;5091216;28;20051;-58
2022/04/24 02:58:54;;;;;;;2.47;2.38;;;;;;;6.10;100.00;94177.94;5089538;28;20027;-58
2022/04/24 03:01:21;;;;;;;2.60;2.50;;;;;;;6.06;100.00;94175.78;5090990;28;20120;-58
2022/04/24 03:03:49;;;;;;;3.17;2.78;;;;;;;6.09;100.00;94171.06;5090299;28;20043;-58
2022/04/24 03:06:15;;;;;;;2.75;2.55;;;;;;;6.10;100.00;94164.06;5090879;28;20028;-58
2022/04/24 03:08:41;;;;;;;3.42;2.70;;;;;;;6.07;100.00;94164.34;5090797;28;20054;-58
2022/04/24 03:11:06;;;;;;;2.28;2.17;;;;;;;6.10;100.00;94166.69;5090606;28;20024;-58
2022/04/24 03:13:31;;;;;;;2.30;2.20;;;;;;;6.15;100.00;94170.47;5090933;28;20028;-58
2022/04/24 03:15:57;;;;;;;1.95;1.90;;;;;;;6.17;100.00;94162.47;5090454;28;20024;-58
2022/04/24 03:18:22;;;;;;;2.45;2.35;;;;;;;6.20;100.00;94170.00;5090947;28;20137;-58
2022/04/24 03:20:48;;;;;;;2.17;2.08;;;;;;;6.19;100.00;94168.38;5090573;28;20036;-58
2022/04/24 03:23:13;;;;;;;2.50;2.40;;;;;;;6.18;100.00;94168.50;5090745;28;20556;-58
2022/04/24 03:25:38;;;;;;;2.30;1.90;;;;;;;6.08;100.00;94168.59;5090769;28;20062;-59
2022/04/24 03:28:04;;;;;;;1.80;1.70;;;;;;;6.07;100.00;94169.56;5090519;28;20115;-58
2022/04/24 03:30:29;;;;;;;1.35;1.35;;;;;;;6.10;100.00;94159.66;5090734;28;20058;-59
2022/04/24 03:32:55;;;;;;;1.42;1.42;;;;;;;6.11;100.00;94163.09;5090596;28;20037;-58
2022/04/24 03:35:20;;;;;;;1.60;1.60;;;;;;;6.08;100.00;94163.38;5090576;28;20035;-59
2022/04/24 03:37:46;;;;;;;1.45;1.45;;;;;;;6.11;100.00;94171.75;5090978;28;20028;-58
2022/04/24 03:40:11;;;;;;;1.25;1.20;;;;;;;6.10;100.00;94169.31;5090819;28;20034;-58
2022/04/24 03:42:37;;;;;;;1.25;1.25;;;;;;;6.02;100.00;94173.47;5089386;28;20028;-59
2022/04/24 03:45:06;;;;;;;1.27;1.27;;;;;;;5.98;100.00;94177.34;5090392;28;20075;-59
2022/04/24 03:47:31;;;;;;;1.10;1.10;;;;;;;6.01;100.00;94171.03;5090512;28;20027;-58
2022/04/24 03:49:57;;;;;;;1.10;1.10;;;;;;;6.07;100.00;94174.81;5090327;28;20032;-58
2022/04/24 03:52:22;;;;;;;1.08;1.08;;;;;;;6.04;100.00;94181.16;5090422;28;20028;-59
2022/04/24 03:54:48;;;;;;;1.10;1.10;;;;;;;6.01;100.00;94179.66;5090457;28;20127;-58
2022/04/24 03:57:13;;;;;;;1.30;1.30;;;;;;;5.98;100.00;94179.94;5090364;28;20567;-58
2022/04/24 03:59:39;;;;;;;0.93;0.93;;;;;;;5.96;100.00;94170.59;5090386;28;20042;-58
2022/04/24 04:02:05;;;;;;;1.08;1.08;;;;;;;5.94;100.00;94178.59;5090168;28;20403;-58
2022/04/24 04:04:30;;;;;;;0.85;0.85;;;;;;;5.93;100.00;94171.75;5090194;28;20102;-58
2022/04/24 04:06:56;;;;;;;1.15;1.15;;;;;;;5.96;100.00;94181.88;5090190;28;20115;-58
2022/04/24 04:09:21;;;;;;;1.23;1.23;;;;;;;5.99;100.00;94181.59;5090497;28;20032;-58
2022/04/24 04:11:47;;;;;;;1.20;1.10;;;;;;;6.00;100.00;94175.38;5090308;28;20442;-58
2022/04/24 04:14:12;;;;;;;1.58;1.10;;;;;;;6.02;100.00;94176.09;5090242;28;20028;-59
2022/04/24 04:16:37;;;;;;;1.23;1.23;;;;;;;6.05;100.00;94182.81;5092627;28;20053;-58
2022/04/24 04:19:03;;;;;;;1.05;1.05;;;;;;;6.01;100.00;94190.13;5093747;28;20036;-59
2022/04/24 04:21:28;;;;;;;1.00;1.00;;;;;;;5.99;100.00;94199.88;5093658;28;20028;-58
2022/04/24 04:23:54;;;;;;;1.10;1.10;;;;;;;6.02;100.00;94206.63;5093512;28;20087;-58
2022/04/24 04:26:19;;;;;;;1.02;1.02;;;;;;;6.19;100.00;94199.72;5093681;28;20068;-59
2022/04/24 04:28:45;;;;;;;0.98;0.98;;;;;;;6.26;100.00;94205.97;5093687;28;20032;-58
2022/04/24 04:31:14;;;;;;;2.17;1.10;;;;;;;6.14;100.00;94218.47;5093618;28;20036;-58
2022/04/24 04:33:40;;;;;;;1.10;1.10;;;;;;;6.16;100.00;94213.09;5093702;28;20283;-58
2022/04/24 04:36:06;;;;;;;0.90;0.90;;;;;;;6.26;100.00;94221.66;5093340;28;20517;-58
2022/04/24 04:38:32;;;;;;;1.48;1.48;;;;;;;6.23;100.00;94229.00;5093470;28;20411;-58
2022/04/24 04:40:57;;;;;;;1.40;1.40;;;;;;;6.25;100.00;94233.09;5093179;28;20066;-58
2022/04/24 04:43:26;;;;;;;1.60;1.60;;;;;;;6.29;100.00;94234.44;5093266;28;20040;-58
2022/04/24 04:45:51;;;;;;;2.83;1.58;;;;;;;6.27;100.00;94235.56;5093380;28;20392;-58
2022/04/24 04:48:17;;;;;;;1.45;1.42;;;;;;;6.24;100.00;94233.25;5093332;28;20031;-58
2022/04/24 04:50:42;;;;;;;1.50;1.50;;;;;;;6.07;100.00;94232.28;5093273;28;20050;-58
2022/04/24 04:53:07;;;;;;;1.52;1.52;;;;;;;6.19;100.00;94241.53;5092898;28;20024;-58
2022/04/24 04:55:33;;;;;;;1.50;1.40;;;;;;;6.34;100.00;94238.41;5093136;28;20028;-59
2022/04/24 04:57:58;;;;;;;1.60;1.60;;;;;;;6.18;100.00;94229.44;5092993;28;20027;-58
2022/04/24 05:00:24;;;;;;;1.88;1.77;;;;;;;6.13;100.00;94244.78;5093163;28;20043;-59
2022/04/24 05:02:50;;;;;;;4.72;1.70;;;;;;;6.07;100.00;94240.97;5092902;28;20027;-58
2022/04/24 05:05:15;;;;;;;2.47;2.38;;;;;;;6.09;100.00;94240.81;5092975;28;20032;-59
2022/04/24 05:07:40;;;;;;;2.08;1.98;;;;;;;6.11;100.00;94242.28;5092958;28;20626;-58
2022/04/24 05:10:07;;;;;;;1.58;1.58;;;;;;;6.15;100.00;94242.81;5092873;28;20082;-58
2022/04/24 05:12:32;;;;;;;1.95;1.85;;;;;;;6.21;100.00;94234.38;5092896;28;20078;-58
2022/04/24 05:15:03;;;;;;;3.50;3.20;;;;;;;6.21;100.00;94241.41;5092561;28;20036;-59
2022/04/24 05:17:29;;;;;;;1.75;1.70;;;;;;;6.18;100.00;94249.53;5092691;28;20047;-58
2022/04/24 05:19:55;;;;;;;1.45;1.45;;;;;;;6.20;100.00;94252.84;5092287;28;20483;-58
2022/04/24 05:22:21;;;;;;;1.42;1.40;;;;;;;6.24;100.00;94252.38;5092505;28;20028;-58
2022/04/24 05:24:46;;;;;;;1.27;1.27;;;;;;;6.25;100.00;94250.59;5092549;28;20085;-58
2022/04/24 05:27:12;;;;;;;1.55;1.55;;;;;;;6.30;100.00;94248.34;5092146;28;20024;-58
2022/04/24 05:29:37;;;;;;;1.70;1.60;;;;;;;6.36;100.00;94259.97;5092489;28;20022;-58
2022/04/24 05:32:03;;;;;;;1.27;1.27;;;;;;;6.43;100.00;94255.78;5092358;28;20020;-58
2022/04/24 05:34:28;;;;;;;1.23;1.23;;;;;;;6.38;100.00;94268.50;5092448;28;20111;-58
2022/04/24 05:36:54;;;;;;;1.60;1.50;;;;;;;6.39;100.00;94272.75;5092224;28;20379;-58
2022/04/24 05:39:19;;;;;;;1.20;1.20;;;;;;;6.40;100.00;94275.19;5092396;28;20047;-58
2022/04/24 05:41:45;;;;;;;1.58;1.58;;;;;;;6.43;100.00;94279.31;5092090;28;20028;-59
2022/04/24 05:44:10;;;;;;;1.45;1.45;;;;;;;6.48;100.00;94276.25;5091856;28;20044;-59
2022/04/24 05:46:35;;;;;;;1.25;1.25;;;;;;;6.47;100.00;94283.25;5092220;28;20416;-59
2022/04/24 05:49:02;;;;;;;1.60;1.50;;;;;;;6.47;100.00;94277.22;5092380;28;20078;-58
2022/04/24 05:51:28;;;;;;;1.88;1.77;;;;;;;6.48;100.00;94284.09;5091777;28;20067;-58
2022/04/24 05:53:54;;;;;;;1.95;1.85;;;;;;;6.57;100.00;94286.63;5091990;28;20064;-59
2022/04/24 05:56:19;;;;;;;2.20;2.10;;;;;;;6.63;100.00;94279.97;5091903;28;20502;-59
2022/04/24 05:58:45;;;;;;;1.50;1.50;;;;;;;6.69;100.00;94286.38;5092040;28;20034;-58
2022/04/24 06:01:11;;;;;;;1.50;1.50;;;;;;;6.76;100.00;94279.56;5091614;28;20395;-59
2022/04/24 06:03:40;;;;;;;1.35;1.35;;;;;;;6.83;100.00;94282.38;5091795;28;20032;-59
2022/04/24 06:06:06;;;;;;;1.38;1.38;;;;;;;6.96;100.00;94284.56;5091552;28;20032;-58
2022/04/24 06:08:31;;;;;;;1.67;1.60;;;;;;;7.05;100.00;94290.69;5091734;28;20035;-58
2022/04/24 06:10:57;;;;;;;1.52;1.42;;;;;;;7.15;100.00;94294.84;5091468;28;20024;-58
2022/04/24 06:13:22;;;;;;;1.50;1.50;;;;;;;7.05;100.00;94294.13;5091727;28;20028;-58
2022/04/24 06:15:48;;;;;;;7.03;3.97;;;;;;;7.07;100.00;94296.59;5091546;28;20032;-58
2022/04/24 06:18:13;;;;;;;3.80;2.70;;;;;;;7.05;100.00;94295.91;5091538;28;20024;-58
2022/04/24 06:20:39;;;;;;;5.57;4.00;;;;;;;7.17;100.00;94298.13;5091492;28;20043;-58
2022/04/24 06:23:04;;;;;;;4.88;3.85;;;;;;;7.31;100.00;94298.53;5091267;28;20024;-58
2022/04/24 06:25:34;;;;;;;7.25;4.60;;;;;;;7.36;100.00;94301.50;5091246;28;20027;-59
2022/04/24 06:28:01;;;;;;;7.05;4.28;;;;;;;7.38;100.00;94299.53;5091202;28;20044;-58
2022/04/24 06:30:28;;;;;;;3.65;3.35;;;;;;;7.39;99.79;94306.41;5091338;28;20545;-58
2022/04/24 06:32:55;;;;;;;2.22;2.13;;;;;;;7.42;100.00;94311.34;5091212;28;20024;-59
2022/04/24 06:35:21;;;;;;;1.85;1.80;;;;;;;7.51;99.16;94308.75;5091511;28;20543;-58
2022/04/24 06:37:49;;;;;;;2.88;1.90;;;;;;;7.64;98.93;94317.03;5090666;28;20024;-58
2022/04/24 06:40:16;;;;;;;4.85;3.10;;;;;;;7.70;98.61;94324.25;5091001;28;20028;-59
2022/04/24 06:42:49;;;;;;;5.32;3.15;;;;;;;7.61;98.22;94325.16;5091241;28;20499;-58
2022/04/24 06:45:15;;;;;;;2.85;2.65;;;;;;;7.52;98.84;94321.72;5089699;28;20048;-58
2022/04/24 06:47:42;;;;;;;4.72;3.00;;;;;;;7.60;98.54;94326.16;5091186;28;20031;-58
2022/04/24 06:50:08;;;;;;;2.85;2.65;;;;;;;7.59;97.62;94325.34;5090761;28;20053;-58
2022/04/24 06:52:33;;;;;;;2.75;2.53;;;;;;;7.58;97.87;94330.72;5090917;28;20036;-58
2022/04/24 06:55:00;;;;;;;2.33;2.22;;;;;;;7.42;98.59;94332.31;5090912;28;20031;-58
2022/04/24 06:57:26;;;;;;;2.20;2.10;;;;;;;7.38;99.02;94336.19;5090891;28;20012;-57
2022/04/24 06:59:51;;;;;;;2.80;2.30;;;;;;;7.38;99.33;94341.44;5090859;28;20024;-58
2022/04/24 07:02:16;;;;;;;2.97;2.80;;;;;;;7.34;99.52;94331.44;5090785;28;20551;-58
2022/04/24 07:04:42;;;;;;;3.70;3.40;;;;;;;7.35;99.83;94333.88;5091067;28;20119;-58
2022/04/24 07:07:07;;;;;;;6.30;3.00;;;;;;;7.37;100.00;94344.22;5090984;28;20443;-58
2022/04/24 07:09:32;;;;;;;2.88;2.65;;;;;;;7.55;98.97;94347.59;5091237;28;20069;-58
2022/04/24 07:11:58;;;;;;;3.22;2.75;;;;;;;7.69;99.79;94353.19;5090846;28;20111;-58
2022/04/24 07:14:23;;;;;;;3.85;3.55;;;;;;;7.77;98.49;94355.88;5090776;28;20036;-58
2022/04/24 07:16:48;;;;;;;5.20;4.70;;;;;;;7.87;98.10;94353.13;5090738;28;20027;-58
2022/04/24 07:19:14;;;;;;;3.90;3.60;;;;;;;7.98;97.15;94350.22;5090716;28;20032;-58
2022/04/24 07:21:39;;;;;;;4.18;3.88;;;;;;;8.14;96.40;94356.50;5090727;28;20028;-58
2022/04/24 07:24:05;;;;;;;5.32;4.65;;;;;;;8.28;95.33;94358.47;5090295;28;20095;-58
2022/04/24 07:26:30;;;;;;;4.45;4.10;;;;;;;8.24;95.32;94362.41;5090820;28;20038;-58
2022/04/24 07:28:56;;;;;;;4.68;4.38;;;;;;;8.34;95.07;94361.47;5090566;28;20028;-58
2022/04/24 07:31:21;;;;;;;4.82;4.10;;;;;;;8.35;95.26;94357.84;5090560;28;20032;-58
2022/04/24 07:33:46;;;;;;;4.32;4.03;;;;;;;8.35;95.25;94363.91;5090737;28;20438;-58
2022/04/24 07:36:12;;;;;;;4.15;3.88;;;;;;;8.49;95.45;94364.25;5090523;28;20495;-58
2022/04/24 07:38:37;;;;;;;4.55;4.15;;;;;;;8.59;94.26;94367.56;5090669;28;20016;-58
2022/04/24 07:41:03;;;;;;;5.80;5.38;;;;;;;8.68;93.85;94374.50;5090263;28;20024;-58
2022/04/24 07:43:28;;;;;;;5.22;4.72;;;;;;;8.76;93.24;94373.69;5090413;28;20044;-58
2022/04/24 07:45:54;;;;;;;4.75;4.45;;;;;;;8.69;92.31;94370.03;5090398;28;20483;-58
2022/04/24 07:48:19;;;;;;;5.70;5.20;;;;;;;8.86;92.08;94373.53;5090283;28;20048;-58
2022/04/24 07:50:49;;;;;;;4.03;3.72;;;;;;;8.83;92.03;94371.19;5093224;28;20035;-58
2022/04/24 07:53:16;;;;;;;3.33;3.13;;;;;;;8.84;91.45;94375.47;5094319;28;20039;-58
2022/04/24 07:55:43;;;;;;;3.90;3.70;;;;;;;8.89;91.92;94375.81;5094426;28;20044;-58
2022/04/24 07:58:09;;;;;;;4.57;3.70;;;;;;;8.96;90.64;94382.03;5094174;28;20055;-58
2022/04/24 08:00:35;;;;;;;3.00;2.80;;;;;;;8.87;88.81;94378.59;5094166;28;20126;-58
2022/04/24 08:03:01;;;;;;;2.40;2.22;;;;;;;8.76;89.86;94378.09;5094157;28;20024;-58
2022/04/24 08:05:29;;;;;;;2.78;2.58;;;;;;;8.84;89.38;94388.59;5094207;28;20028;-58
2022/04/24 08:07:57;;;;;;;2.72;2.42;;;;;;;8.92;89.05;94385.97;5094123;28;20032;-58
2022/04/24 08:10:24;;;;;;;3.40;2.50;;;;;;;8.97;89.03;94385.50;5094032;28;20031;-58
2022/04/24 08:12:50;;;;;;;2.38;2.28;;;;;;;9.13;88.66;94388.09;5093735;28;20085;-58
2022/04/24 08:15:16;;;;;;;2.55;2.35;;;;;;;9.27;88.55;94404.19;5093799;28;20119;-58
2022/04/24 08:17:42;;;;;;;2.90;2.80;;;;;;;9.22;88.76;94398.63;5094032;28;20028;-58
2022/04/24 08:20:09;;;;;;;4.05;3.63;;;;;;;9.26;88.25;94403.34;5093574;28;20403;-58
2022/04/24 08:22:41;;;;;;;4.10;3.80;;;;;;;9.20;88.95;94408.47;5093996;28;20028;-58
2022/04/24 08:25:08;;;;;;;3.90;3.60;;;;;;;9.20;88.60;94408.47;5093580;28;20066;-58
2022/04/24 08:27:35;;;;;;;3.58;3.28;;;;;;;9.25;88.14;94408.78;5093632;28;20024;-58
2022/04/24 08:30:01;;;;;;;3.28;3.10;;;;;;;9.20;86.58;94408.47;5093589;28;20491;-58
2022/04/24 08:32:26;;;;;;;3.00;2.80;;;;;;;9.23;87.57;94414.19;5094050;28;20149;-58
2022/04/24 08:34:52;;;;;;;2.97;2.75;;;;;;;9.34;87.84;94415.66;5093522;28;20024;-58
2022/04/24 08:37:17;;;;;;;5.63;2.70;;;;;;;9.27;86.83;94412.06;5093397;28;20480;-58
2022/04/24 08:39:43;;;;;;;3.35;3.15;;;;;;;9.44;87.72;94410.22;5093485;28;20034;-58
2022/04/24 08:42:09;;;;;;;2.90;2.80;;;;;;;9.59;87.15;94410.38;5093256;28;20031;-58
2022/04/24 08:44:36;;;;;;;3.70;2.95;;;;;;;9.59;87.87;94418.25;5093307;28;20048;-58
2022/04/24 08:47:01;;;;;;;2.22;2.10;;;;;;;9.92;84.73;94418.19;5093361;28;20145;-59
2022/04/24 08:49:31;;;;;;;2.25;2.10;;;;;;;10.12;83.97;94423.06;5093346;28;20519;-58
2022/04/24 08:51:58;;;;;;;2.28;2.08;;;;;;;10.46;82.81;94427.19;5093085;28;20068;-58
2022/04/24 08:54:27;;;;;;;2.30;2.20;;;;;;;10.89;81.75;94435.50;5093167;28;20084;-58
2022/04/24 08:56:56;;;;;;;1.40;1.40;;;;;;;11.00;80.11;94429.00;5093167;28;20036;-58
2022/04/24 08:59:22;;;;;;;2.47;1.80;;;;;;;11.07;80.06;94431.75;5093198;28;20039;-59
2022/04/24 09:01:47;;;;;;;4.60;2.00;;;;;;;11.02;79.54;94423.59;5092254;28;20028;-58
2022/04/24 09:04:13;;;;;;;4.95;2.17;;;;;;;10.89;80.32;94434.69;5092768;28;20028;-59
2022/04/24 09:06:41;;;;;;;4.63;3.03;;;;;;;11.28;78.81;94425.84;5093416;28;20024;-58
2022/04/24 09:09:06;;;;;;;3.20;2.90;;;;;;;11.32;77.27;94432.41;5093289;28;20548;-58
2022/04/24 09:11:34;;;;;;;4.57;4.00;;;;;;;11.17;77.64;94439.44;5092836;28;20191;-58
2022/04/24 09:14:14;;;;;;;4.05;3.40;;;;;;;11.32;77.00;94445.56;5092846;28;20101;-58
2022/04/24 09:16:48;;;;;;;1.63;1.40;;;;;;;11.66;74.65;94438.19;5093052;28;20026;-57
2022/04/24 09:19:21;;;;;;;2.25;1.30;;;;;;;11.55;73.40;94443.91;5092474;28;20035;-57
2022/04/24 09:21:51;;;;;;;1.30;1.30;;;;;;;11.34;74.01;94441.94;5092648;28;20403;-58
2022/04/24 09:24:17;;;;;;;1.45;1.35;;;;;;;11.74;74.92;94439.94;5092257;28;20040;-58
2022/04/24 09:26:57;;;;;;;3.42;1.58;;;;;;;12.16;69.78;94441.19;5092704;28;20374;-58
2022/04/24 09:29:23;;;;;;;1.08;1.08;;;;;;;12.27;70.47;94442.53;5092340;28;20032;-57
2022/04/24 09:31:51;;;;;;;1.60;1.50;;;;;;;12.10;69.75;94451.63;5092493;28;20149;-58
2022/04/24 09:34:19;;;;;;;0.90;0.90;;;;;;;12.02;67.60;94444.63;5090969;28;20040;-58
2022/04/24 09:36:46;;;;;;;1.20;1.20;;;;;;;11.95;68.81;94448.97;5092424;28;20028;-58
2022/04/24 09:39:11;;;;;;;1.00;1.00;;;;;;;12.18;69.26;94449.72;5092186;28;20028;-58
2022/04/24 09:41:38;;;;;;;1.02;1.02;;;;;;;12.20;68.33;94446.91;5092229;28;20039;-58
2022/04/24 09:44:12;;;;;;;1.00;1.00;;;;;;;12.45;66.85;94449.25;5092092;28;20134;-57
2022/04/24 09:46:37;;;;;;;1.52;1.40;;;;;;;12.31;68.89;94453.53;5092182;28;20078;-58
2022/04/24 09:49:03;;;;;;;1.40;1.30;;;;;;;12.38;66.69;94454.47;5092078;28;20024;-58
2022/04/24 09:51:28;;;;;;;0.93;0.93;;;;;;;12.25;67.83;94459.56;5092024;28;20036;-57
2022/04/24 09:54:02;;;;;;;1.38;1.30;;;;;;;12.32;67.79;94463.91;5092107;28;20031;-57
2022/04/24 09:56:28;;;;;;;0.90;0.90;;;;;;;12.62;67.31;94473.63;5091772;28;20462;-58
2022/04/24 09:58:56;;;;;;;2.47;1.08;;;;;;;12.56;66.54;94469.91;5091906;28;20024;-57
2022/04/24 10:01:22;;;;;;;2.58;1.20;;;;;;;12.53;66.75;94469.44;5091688;28;20032;-57
2022/04/24 10:03:49;;;;;;;1.00;1.00;;;;;;;12.86;66.63;94480.41;5092033;28;20027;-58
2022/04/24 10:06:16;;;;;;;1.10;1.10;;;;;;;13.18;64.96;94486.25;5091855;28;20480;-57
2022/04/24 10:08:42;;;;;;;1.10;1.10;;;;;;;13.40;63.33;94485.44;5091645;28;20487;-58
2022/04/24 10:11:07;;;;;;;1.30;1.30;;;;;;;13.43;63.60;94479.78;5091647;28;20065;-57
2022/04/24 10:13:41;;;;;;;1.20;1.20;;;;;;;13.37;64.40;94488.44;5090828;28;20119;-58
2022/04/24 10:16:28;;;;;;;1.83;1.67;;;;;;;13.49;63.97;94486.16;5091511;28;20055;-58
2022/04/24 10:19:33;;;;;;;1.20;1.10;;;;;;;13.50;62.86;94490.44;5091430;28;20501;-57
2022/04/24 10:22:11;;;;;;;1.05;1.05;;;;;;;13.27;64.49;94491.41;5091670;28;20028;-58
2022/04/24 10:24:45;;;;;;;1.10;1.10;;;;;;;13.39;63.42;94497.00;5091422;28;20032;-57
2022/04/24 10:27:11;;;;;;;0.82;0.80;;;;;;;13.58;63.14;94506.16;5091420;28;20202;-58
2022/04/24 10:29:59;;;;;;;1.30;1.20;;;;;;;13.93;62.36;94506.25;5091438;28;20111;-58
2022/04/24 10:32:26;;;;;;;0.90;0.90;;;;;;;14.39;61.41;94501.47;5091191;28;20479;-57
2022/04/24 10:34:52;;;;;;;1.10;1.08;;;;;;;14.85;59.09;94506.19;5091533;28;20024;-58
2022/04/24 10:37:27;;;;;;;1.38;1.27;;;;;;;14.95;57.73;94510.31;5091089;28;20028;-58
2022/04/24 10:39:58;;;;;;;0.80;0.80;;;;;;;15.20;57.36;94507.16;5091177;28;20032;-58
2022/04/24 10:42:34;;;;;;;1.52;1.05;;;;;;;15.57;56.31;94510.25;5090841;28;20039;-58
2022/04/24 10:45:07;;;;;;;1.95;1.10;;;;;;;16.12;53.90;94510.09;5090541;28;20058;-58
2022/04/24 10:47:46;;;;;;;1.15;1.15;;;;;;;16.98;51.19;94509.31;5091034;28;20028;-58
2022/04/24 10:50:13;;;;;;;0.80;0.80;;;;;;;17.58;50.83;94505.53;5091179;28;20027;-58
2022/04/24 10:52:43;;;;;;;0.70;0.70;;;;;;;16.95;52.03;94496.44;5091164;28;20028;-58
2022/04/24 10:55:22;;;;;;;0.70;0.70;;;;;;;16.38;51.29;94507.63;5090701;28;20015;-58
2022/04/24 10:58:00;;;;;;;1.20;1.10;;;;;;;16.08;51.70;94502.78;5090803;28;20024;-58
2022/04/24 11:00:32;;;;;;;0.68;0.68;;;;;;;15.92;51.91;94507.47;5090876;28;20105;-58
2022/04/24 11:03:07;;;;;;;0.85;0.80;;;;;;;15.11;54.34;94514.47;5089720;28;20020;-57
2022/04/24 11:05:36;;;;;;;0.50;0.50;;;;;;;14.94;52.96;94511.34;5090792;28;20028;-58
2022/04/24 11:08:04;;;;;;;0.73;0.73;;;;;;;15.09;54.72;94505.88;5090511;28;20032;-57
2022/04/24 11:10:30;;;;;;;0.80;0.80;;;;;;;15.30;55.09;94510.22;5090073;28;20118;-58
2022/04/24 11:12:56;;;;;;;0.98;0.90;;;;;;;15.52;54.87;94502.09;5086277;28;20573;-58
2022/04/24 11:15:21;;;;;;;0.77;0.77;;;;;;;15.58;53.29;94504.75;5089974;28;20024;-58
2022/04/24 11:17:47;;;;;;;1.55;1.45;;;;;;;15.75;51.36;94505.19;5090154;28;20020;-58
2022/04/24 11:20:15;;;;;;;1.50;1.40;;;;;;;16.13;51.23;94510.94;5089785;28;20027;-58
2022/04/24 11:22:48;;;;;;;1.77;0.82;;;;;;;16.52;49.84;94501.28;5090186;28;20024;-57
2022/04/24 11:25:15;;;;;;;0.73;0.73;;;;;;;16.74;46.97;94509.78;5090459;28;20021;-58
2022/04/24 11:27:44;;;;;;;0.95;0.88;;;;;;;17.18;45.09;94511.88;5094265;28;20097;-58
2022/04/24 11:30:15;;;;;;;0.80;0.80;;;;;;;17.95;44.91;94505.66;5093929;28;20027;-57
2022/04/24 11:32:41;;;;;;;0.82;0.82;;;;;;;17.77;46.69;94503.78;5094468;28;20024;-58